Time;durP1;ratioP1;P1;durP2;ratioP2;P2;SDS_P1;SDS_P2;PMS_P1;PMS_P2;Temp;Humidity;BMP_temperature;BMP_pressure;BME280_temperature;BME280_humidity;BME280_pressure;Samples;Min_cycle;Max_cycle;Signal;HPM_P1;HPM_P2
2022/04/03 00:02:20;;;;;;;;;;;3.30;44.20;;;;;;6280479;22;19958;-86
2022/04/03 00:04:47;;;;;;;;;;;3.30;44.10;;;;;;6279863;22;19934;-86
2022/04/03 00:07:12;;;;;;;;;;;3.30;44.20;;;;;;6303873;22;19907;-87
2022/04/03 00:09:38;;;;;;;;;;;3.30;44.10;;;;;;6279633;22;19908;-86
2022/04/03 00:12:03;;;;;;;;;;;3.40;44.00;;;;;;6303267;22;20232;-86
2022/04/03 00:14:29;;;;;;;;;;;3.40;44.00;;;;;;6302624;22;20336;-86
2022/04/03 00:16:55;;;;;;;;;;;3.40;43.90;;;;;;6276563;22;20232;-85
2022/04/03 00:19:28;;;;;;;;;;;3.40;43.80;;;;;;6279058;22;19922;-86
2022/04/03 00:21:54;;;;;;;;;;;3.40;43.70;;;;;;6303500;22;19915;-86
2022/04/03 00:24:19;;;;;;;;;;;3.30;43.70;;;;;;6302261;22;19918;-86
2022/04/03 00:26:45;;;;;;;;;;;3.20;43.90;;;;;;6303458;22;19950;-85
2022/04/03 00:29:10;;;;;;;;;;;3.20;43.90;;;;;;6278446;22;19918;-85
2022/04/03 00:31:36;;;;;;;;;;;3.10;43.90;;;;;;6302488;22;19904;-86
2022/04/03 00:34:03;;;;;;;;;;;3.10;43.90;;;;;;6277183;22;19907;-86
2022/04/03 00:36:28;;;;;;;;;;;3.10;43.90;;;;;;6277172;22;19903;-85
2022/04/03 00:38:54;;;;;;;;;;;3.10;43.90;;;;;;6302207;22;19934;-85
2022/04/03 00:41:22;;;;;;;;;;;3.10;44.10;;;;;;6277506;22;19911;-86
2022/04/03 00:43:47;;;;;;;;;;;3.10;44.00;;;;;;6302175;22;19962;-86
2022/04/03 00:46:15;;;;;;;;;;;3.00;44.00;;;;;;6301974;22;19911;-86
2022/04/03 00:48:40;;;;;;;;;;;2.90;44.10;;;;;;6301771;22;19965;-86
2022/04/03 00:51:06;;;;;;;;;;;2.90;44.10;;;;;;6276488;22;19986;-87
2022/04/03 00:53:31;;;;;;;;;;;2.80;44.30;;;;;;6302293;22;19922;-86
2022/04/03 00:55:57;;;;;;;;;;;2.80;44.40;;;;;;6277300;22;19931;-85
2022/04/03 00:58:23;;;;;;;;;;;2.80;44.30;;;;;;6278760;22;19990;-87
2022/04/03 01:00:48;;;;;;;;;;;2.70;44.20;;;;;;6277290;22;19935;-86
2022/04/03 01:03:13;;;;;;;;;;;2.70;44.20;;;;;;6302116;22;19916;-87
2022/04/03 01:05:39;;;;;;;;;;;2.60;44.40;;;;;;6277628;22;20269;-86
2022/04/03 01:08:05;;;;;;;;;;;2.60;44.40;;;;;;6277731;22;19918;-86
2022/04/03 01:10:30;;;;;;;;;;;2.60;44.50;;;;;;6302127;22;19911;-86
2022/04/03 01:12:56;;;;;;;;;;;2.50;44.50;;;;;;6302060;22;20228;-86
2022/04/03 01:15:21;;;;;;;;;;;2.50;44.60;;;;;;6277051;22;19946;-86
2022/04/03 01:17:47;;;;;;;;;;;2.50;44.60;;;;;;6301705;22;19918;-86
2022/04/03 01:20:12;;;;;;;;;;;2.50;44.60;;;;;;6302253;22;19922;-86
2022/04/03 01:22:38;;;;;;;;;;;2.50;44.60;;;;;;6301441;22;19915;-86
2022/04/03 01:25:04;;;;;;;;;;;2.50;44.60;;;;;;6278318;22;19907;-86
2022/04/03 01:27:30;;;;;;;;;;;2.60;44.60;;;;;;6301896;22;19965;-86
2022/04/03 01:29:57;;;;;;;;;;;2.50;44.60;;;;;;6275563;22;19907;-83
2022/04/03 01:32:23;;;;;;;;;;;2.50;44.70;;;;;;6300568;22;19919;-86
2022/04/03 01:34:48;;;;;;;;;;;2.50;44.70;;;;;;6278211;22;20569;-86
2022/04/03 01:37:14;;;;;;;;;;;2.40;44.80;;;;;;6300969;22;19907;-86
2022/04/03 01:39:39;;;;;;;;;;;2.40;45.00;;;;;;6301464;22;19919;-86
2022/04/03 01:42:05;;;;;;;;;;;2.50;45.00;;;;;;6301472;22;20313;-86
2022/04/03 01:44:30;;;;;;;;;;;2.40;44.90;;;;;;6301384;22;20009;-85
2022/04/03 01:46:56;;;;;;;;;;;2.40;44.80;;;;;;6278749;22;20312;-84
2022/04/03 01:49:22;;;;;;;;;;;2.40;44.80;;;;;;6278752;22;20267;-85
2022/04/03 01:51:47;;;;;;;;;;;2.40;44.80;;;;;;6303546;22;19947;-85
2022/04/03 01:54:14;;;;;;;;;;;2.40;44.90;;;;;;6302890;22;19907;-84
2022/04/03 01:56:40;;;;;;;;;;;2.30;44.90;;;;;;6276997;22;19910;-85
2022/04/03 01:59:06;;;;;;;;;;;2.40;44.90;;;;;;6303415;22;20332;-86
2022/04/03 02:01:32;;;;;;;;;;;2.30;44.90;;;;;;6303415;22;19907;-85
2022/04/03 02:03:57;;;;;;;;;;;2.30;44.90;;;;;;6302354;22;19907;-85
2022/04/03 02:06:23;;;;;;;;;;;2.30;45.00;;;;;;6302038;22;19903;-85
2022/04/03 02:08:49;;;;;;;;;;;2.40;45.10;;;;;;6277101;22;19911;-85
2022/04/03 02:11:17;;;;;;;;;;;2.40;45.20;;;;;;6277734;22;20077;-85
2022/04/03 02:13:42;;;;;;;;;;;2.50;45.30;;;;;;6301979;22;20008;-85
2022/04/03 02:16:09;;;;;;;;;;;2.50;45.30;;;;;;6301673;22;19961;-85
2022/04/03 02:18:35;;;;;;;;;;;2.60;45.40;;;;;;6275936;22;19903;-85
2022/04/03 02:21:01;;;;;;;;;;;2.60;46.20;;;;;;6276920;22;20314;-85
2022/04/03 02:23:26;;;;;;;;;;;2.70;46.70;;;;;;6277549;22;20339;-85
2022/04/03 02:25:52;;;;;;;;;;;2.80;46.50;;;;;;6277853;22;19907;-85
2022/04/03 02:28:17;;;;;;;;;;;2.90;46.30;;;;;;6276200;22;19908;-85
2022/04/03 02:30:43;;;;;;;;;;;2.90;46.20;;;;;;6301942;22;19961;-85
2022/04/03 02:33:08;;;;;;;;;;;3.00;46.10;;;;;;6277627;22;19904;-86
2022/04/03 02:35:34;;;;;;;;;;;3.00;46.20;;;;;;6276398;22;19922;-85
2022/04/03 02:37:59;;;;;;;;;;;3.00;46.30;;;;;;6301662;22;19915;-85
2022/04/03 02:40:25;;;;;;;;;;;3.10;46.30;;;;;;6276674;22;19955;-86
2022/04/03 02:42:52;;;;;;;;;;;3.10;46.60;;;;;;6278294;22;19915;-85
2022/04/03 02:45:18;;;;;;;;;;;3.20;47.10;;;;;;6276214;22;19914;-85
2022/04/03 02:47:50;;;;;;;;;;;3.20;47.10;;;;;;6277812;22;19911;-85
2022/04/03 02:50:16;;;;;;;;;;;3.20;47.00;;;;;;6277999;22;19909;-84
2022/04/03 02:52:42;;;;;;;;;;;3.30;46.80;;;;;;6301876;22;20478;-85
2022/04/03 02:55:08;;;;;;;;;;;3.30;46.80;;;;;;6301002;22;19911;-85
2022/04/03 02:57:34;;;;;;;;;;;3.40;46.70;;;;;;6300415;22;19903;-85
2022/04/03 02:59:59;;;;;;;;;;;3.50;47.30;;;;;;6276091;22;19911;-85
2022/04/03 03:02:25;;;;;;;;;;;3.60;47.50;;;;;;6300811;22;20312;-86
2022/04/03 03:04:50;;;;;;;;;;;3.70;47.20;;;;;;6275478;22;19995;-85
2022/04/03 03:07:16;;;;;;;;;;;3.70;46.90;;;;;;6301663;22;19954;-86
2022/04/03 03:09:41;;;;;;;;;;;3.70;46.80;;;;;;6277937;22;19914;-86
2022/04/03 03:12:07;;;;;;;;;;;3.80;46.70;;;;;;6277753;22;19915;-85
2022/04/03 03:14:33;;;;;;;;;;;3.80;46.60;;;;;;6277556;22;19908;-86
2022/04/03 03:16:58;;;;;;;;;;;3.80;46.60;;;;;;6279341;22;19966;-86
2022/04/03 03:19:24;;;;;;;;;;;3.90;46.60;;;;;;6301613;22;19911;-86
2022/04/03 03:21:49;;;;;;;;;;;3.90;46.50;;;;;;6303085;22;19908;-85
2022/04/03 03:24:14;;;;;;;;;;;4.00;46.60;;;;;;6302861;22;19908;-85
2022/04/03 03:26:41;;;;;;;;;;;4.10;46.80;;;;;;6302486;22;19919;-85
2022/04/03 03:29:06;;;;;;;;;;;4.10;47.10;;;;;;6278945;22;19951;-85
2022/04/03 03:31:32;;;;;;;;;;;4.10;46.90;;;;;;6278031;22;20399;-84
2022/04/03 03:33:58;;;;;;;;;;;4.10;47.20;;;;;;6303161;22;19914;-86
2022/04/03 03:36:24;;;;;;;;;;;4.20;47.00;;;;;;6278079;22;19911;-86
2022/04/03 03:38:49;;;;;;;;;;;4.30;46.80;;;;;;6302300;22;19913;-88
2022/04/03 03:41:15;;;;;;;;;;;4.30;47.00;;;;;;6278929;22;19938;-86
2022/04/03 03:43:41;;;;;;;;;;;4.30;47.30;;;;;;6302637;22;19913;-86
2022/04/03 03:46:08;;;;;;;;;;;4.40;47.10;;;;;;6303996;22;19927;-86
2022/04/03 03:48:34;;;;;;;;;;;4.40;47.20;;;;;;6277033;22;19986;-86
2022/04/03 03:50:59;;;;;;;;;;;4.40;47.30;;;;;;6302543;22;19914;-86
2022/04/03 03:53:25;;;;;;;;;;;4.50;47.20;;;;;;6278260;22;19908;-86
2022/04/03 03:55:51;;;;;;;;;;;4.50;47.30;;;;;;6302086;22;19903;-86
2022/04/03 03:58:16;;;;;;;;;;;4.60;47.90;;;;;;6277924;22;20367;-85
2022/04/03 04:00:42;;;;;;;;;;;4.60;48.20;;;;;;6275850;22;19911;-84
2022/04/03 04:03:07;;;;;;;;;;;4.70;47.90;;;;;;6277584;22;19911;-86
2022/04/03 04:05:33;;;;;;;;;;;4.70;47.80;;;;;;6301745;22;19910;-86
2022/04/03 04:07:58;;;;;;;;;;;4.80;47.60;;;;;;6302201;22;20292;-86
2022/04/03 04:10:23;;;;;;;;;;;4.80;47.70;;;;;;6276990;22;19911;-85
2022/04/03 04:12:49;;;;;;;;;;;4.80;48.10;;;;;;6280233;22;19907;-87
2022/04/03 04:15:15;;;;;;;;;;;4.90;48.00;;;;;;6276835;22;19907;-86
2022/04/03 04:17:42;;;;;;;;;;;4.90;48.00;;;;;;6302514;22;19923;-86
2022/04/03 04:20:11;;;;;;;;;;;5.00;47.70;;;;;;6276550;22;20041;-86
2022/04/03 04:22:36;;;;;;;;;;;5.00;47.60;;;;;;6277795;22;19978;-86
2022/04/03 04:25:02;;;;;;;;;;;5.00;47.50;;;;;;6278254;22;19911;-85
2022/04/03 04:27:28;;;;;;;;;;;5.00;47.60;;;;;;6278292;22;19903;-87
2022/04/03 04:29:53;;;;;;;;;;;5.00;47.60;;;;;;6278503;22;19958;-85
2022/04/03 04:32:21;;;;;;;;;;;5.10;47.50;;;;;;6277804;22;20308;-86
2022/04/03 04:34:50;;;;;;;;;;;5.10;47.50;;;;;;6276420;22;19911;-86
2022/04/03 04:37:16;;;;;;;;;;;5.20;47.50;;;;;;6277737;22;19909;-86
2022/04/03 04:39:42;;;;;;;;;;;5.20;47.60;;;;;;6277738;22;19995;-85
2022/04/03 04:42:07;;;;;;;;;;;5.30;47.50;;;;;;6301672;22;20017;-86
2022/04/03 04:44:33;;;;;;;;;;;5.30;47.40;;;;;;6277978;22;19910;-86
2022/04/03 04:46:58;;;;;;;;;;;5.30;47.30;;;;;;6278002;22;20423;-85
2022/04/03 04:49:24;;;;;;;;;;;5.40;47.30;;;;;;6276463;22;19907;-84
2022/04/03 04:51:49;;;;;;;;;;;5.40;47.30;;;;;;6277170;22;19990;-86
2022/04/03 04:54:14;;;;;;;;;;;5.50;47.30;;;;;;6301688;22;19907;-86
2022/04/03 04:56:40;;;;;;;;;;;5.50;47.40;;;;;;6301650;22;19935;-86
2022/04/03 04:59:05;;;;;;;;;;;5.50;47.30;;;;;;6300862;22;19915;-86
2022/04/03 05:01:31;;;;;;;;;;;5.50;47.20;;;;;;6276663;22;19911;-86
2022/04/03 05:03:56;;;;;;;;;;;5.40;47.00;;;;;;6300965;22;19935;-86
2022/04/03 05:06:26;;;;;;;;;;;5.30;46.80;;;;;;6301689;22;20343;-86
2022/04/03 05:08:52;;;;;;;;;;;5.30;46.70;;;;;;6276359;22;19914;-86
2022/04/03 05:11:18;;;;;;;;;;;5.20;46.80;;;;;;6302185;22;19915;-85
2022/04/03 05:13:43;;;;;;;;;;;5.00;46.70;;;;;;6278457;22;19915;-85
2022/04/03 05:16:10;;;;;;;;;;;4.90;46.90;;;;;;6276985;22;19907;-85
2022/04/03 05:18:35;;;;;;;;;;;4.80;47.10;;;;;;6300996;22;20289;-86
2022/04/03 05:21:02;;;;;;;;;;;4.70;47.30;;;;;;6278069;22;19949;-85
2022/04/03 05:23:27;;;;;;;;;;;4.80;48.00;;;;;;6278740;22;20328;-87
2022/04/03 05:25:53;;;;;;;;;;;4.90;48.70;;;;;;6279028;22;19974;-86
2022/04/03 05:28:20;;;;;;;;;;;5.20;49.40;;;;;;6303949;22;19911;-86
2022/04/03 05:30:46;;;;;;;;;;;5.40;50.00;;;;;;6276762;22;19926;-86
2022/04/03 05:33:12;;;;;;;;;;;5.70;50.60;;;;;;6303886;22;19908;-85
2022/04/03 05:35:38;;;;;;;;;;;6.10;51.10;;;;;;6302701;22;19903;-87
2022/04/03 05:38:04;;;;;;;;;;;6.50;51.50;;;;;;6276861;22;19915;-86
2022/04/03 05:40:30;;;;;;;;;;;6.90;51.70;;;;;;6302773;22;19961;-86
2022/04/03 05:42:55;;;;;;;;;;;7.30;51.70;;;;;;6276682;22;19961;-87
2022/04/03 05:45:21;;;;;;;;;;;7.80;51.80;;;;;;6277735;22;19910;-86
2022/04/03 05:47:46;;;;;;;;;;;8.30;51.90;;;;;;6277250;22;19914;-86
2022/04/03 05:50:12;;;;;;;;;;;8.80;52.00;;;;;;6302030;22;19962;-85
2022/04/03 05:52:48;;;;;;;;;;;9.40;52.30;;;;;;6301890;22;19939;-86
2022/04/03 05:55:15;;;;;;;;;;;10.00;52.80;;;;;;6302121;22;19911;-87
2022/04/03 05:57:41;;;;;;;;;;;10.50;53.00;;;;;;6302065;22;19911;-85
2022/04/03 06:00:08;;;;;;;;;;;11.10;53.00;;;;;;6277535;22;19918;-86
2022/04/03 06:03:00;;;;;;;;;;;11.60;53.00;;;;;;6302371;22;19957;-86
2022/04/03 06:05:27;;;;;;;;;;;12.20;52.80;;;;;;6273242;22;20349;-85
2022/04/03 06:07:52;;;;;;;;;;;12.70;52.20;;;;;;6277811;22;19907;-85
2022/04/03 06:10:19;;;;;;;;;;;13.10;52.00;;;;;;6278440;22;19907;-87
2022/04/03 06:12:51;;;;;;;;;;;13.70;52.10;;;;;;6278299;22;19911;-86
2022/04/03 06:15:16;;;;;;;;;;;14.10;52.00;;;;;;6278099;22;20235;-86
2022/04/03 06:17:42;;;;;;;;;;;14.60;51.20;;;;;;6277829;22;19907;-86
2022/04/03 06:20:07;;;;;;;;;;;15.10;50.70;;;;;;6276010;22;19915;-86
2022/04/03 06:22:33;;;;;;;;;;;15.70;50.10;;;;;;6278519;22;19930;-86
2022/04/03 06:24:58;;;;;;;;;;;16.20;49.10;;;;;;6302297;22;19907;-86
2022/04/03 06:27:26;;;;;;;;;;;16.70;48.40;;;;;;6276947;22;19907;-87
2022/04/03 06:29:52;;;;;;;;;;;17.10;48.10;;;;;;6302808;22;19912;-87
2022/04/03 06:32:17;;;;;;;;;;;17.60;47.50;;;;;;6278483;22;19918;-86
2022/04/03 06:34:42;;;;;;;;;;;18.00;46.60;;;;;;6278449;22;19908;-87
2022/04/03 06:37:08;;;;;;;;;;;18.50;45.80;;;;;;6276322;22;19907;-87
2022/04/03 06:39:33;;;;;;;;;;;18.90;44.90;;;;;;6276756;22;19916;-87
2022/04/03 06:41:59;;;;;;;;;;;19.30;43.80;;;;;;6278184;22;20236;-87
2022/04/03 06:44:24;;;;;;;;;;;19.80;42.70;;;;;;6277631;22;20038;-86
2022/04/03 06:46:50;;;;;;;;;;;20.20;41.90;;;;;;6278029;22;19918;-88
2022/04/03 06:49:16;;;;;;;;;;;20.80;41.10;;;;;;6302101;22;20245;-88
2022/04/03 06:51:41;;;;;;;;;;;21.30;39.10;;;;;;6278680;22;20308;-87
2022/04/03 06:54:07;;;;;;;;;;;21.70;37.60;;;;;;6278046;22;19958;-86
2022/04/03 06:56:32;;;;;;;;;;;22.00;36.30;;;;;;6277683;22;19911;-87
2022/04/03 06:58:58;;;;;;;;;;;22.30;35.40;;;;;;6277879;22;19911;-89
2022/04/03 07:01:23;;;;;;;;;;;22.70;34.90;;;;;;6277389;22;20243;-86
2022/04/03 07:03:50;;;;;;;;;;;22.90;33.20;;;;;;6277658;22;19912;-87
2022/04/03 07:06:15;;;;;;;;;;;23.20;32.30;;;;;;6302538;22;19911;-87
2022/04/03 07:08:43;;;;;;;;;;;23.40;31.40;;;;;;6302096;22;19915;-87
2022/04/03 07:11:08;;;;;;;;;;;23.70;31.00;;;;;;6277342;22;19908;-88
2022/04/03 07:13:34;;;;;;;;;;;23.90;30.70;;;;;;6277217;22;20002;-87
2022/04/03 07:15:59;;;;;;;;;;;24.20;29.90;;;;;;6278969;22;19915;-87
2022/04/03 07:18:25;;;;;;;;;;;24.50;28.30;;;;;;6277851;22;19931;-86
2022/04/03 07:20:50;;;;;;;;;;;24.90;28.70;;;;;;6277459;22;19918;-87
2022/04/03 07:23:16;;;;;;;;;;;25.30;27.70;;;;;;6277272;22;19907;-88
2022/04/03 07:25:41;;;;;;;;;;;25.40;27.00;;;;;;6301293;22;20296;-87
2022/04/03 07:28:07;;;;;;;;;;;25.70;26.60;;;;;;6277468;22;20400;-87
2022/04/03 07:30:32;;;;;;;;;;;25.80;26.20;;;;;;6277331;22;19911;-87
2022/04/03 07:32:58;;;;;;;;;;;25.80;25.50;;;;;;6277697;22;19942;-88
2022/04/03 07:35:25;;;;;;;;;;;26.00;25.50;;;;;;6275631;22;20247;-88
2022/04/03 07:37:51;;;;;;;;;;;26.20;25.00;;;;;;6275774;22;19965;-88
2022/04/03 07:40:16;;;;;;;;;;;26.40;24.20;;;;;;6301563;22;19965;-87
2022/04/03 07:42:42;;;;;;;;;;;26.50;23.50;;;;;;6301790;22;19911;-87
2022/04/03 07:45:08;;;;;;;;;;;26.70;23.60;;;;;;6301500;22;19926;-88
2022/04/03 07:47:33;;;;;;;;;;;26.80;22.80;;;;;;6277765;22;19918;-89
2022/04/03 07:50:04;;;;;;;;;;;26.80;21.20;;;;;;6301760;22;19908;-88
2022/04/03 07:52:29;;;;;;;;;;;26.90;21.70;;;;;;6301740;22;20276;-87
2022/04/03 07:54:55;;;;;;;;;;;27.00;21.40;;;;;;6300996;22;19923;-87
2022/04/03 07:57:20;;;;;;;;;;;27.10;21.10;;;;;;6300988;22;20227;-88
2022/04/03 07:59:46;;;;;;;;;;;27.20;20.90;;;;;;6276415;22;20292;-88
2022/04/03 08:02:13;;;;;;;;;;;27.40;20.40;;;;;;6301409;22;20342;-87
2022/04/03 08:04:38;;;;;;;;;;;27.40;19.60;;;;;;6302806;22;19945;-88
2022/04/03 08:07:04;;;;;;;;;;;27.40;20.00;;;;;;6278362;22;20288;-88
2022/04/03 08:09:29;;;;;;;;;;;27.60;20.20;;;;;;6278705;22;19904;-88
2022/04/03 08:11:55;;;;;;;;;;;27.80;19.90;;;;;;6303315;22;19911;-88
2022/04/03 08:14:22;;;;;;;;;;;27.90;19.60;;;;;;6301223;22;20352;-88
2022/04/03 08:16:47;;;;;;;;;;;28.00;19.50;;;;;;6279430;22;19907;-88
2022/04/03 08:19:13;;;;;;;;;;;28.10;19.50;;;;;;6303733;22;19914;-88
2022/04/03 08:21:38;;;;;;;;;;;28.30;19.30;;;;;;6303560;22;19915;-88
2022/04/03 08:24:04;;;;;;;;;;;28.50;19.30;;;;;;6304216;22;19903;-87
2022/04/03 08:26:30;;;;;;;;;;;28.70;18.70;;;;;;6278204;22;19961;-88
2022/04/03 08:28:55;;;;;;;;;;;28.90;18.70;;;;;;6278743;22;19911;-88
2022/04/03 08:31:23;;;;;;;;;;;29.00;18.50;;;;;;6303728;22;19903;-88
2022/04/03 08:33:49;;;;;;;;;;;29.00;18.30;;;;;;6279403;22;19907;-88
2022/04/03 08:36:17;;;;;;;;;;;29.10;17.70;;;;;;6277918;22;19904;-88
2022/04/03 08:38:54;;;;;;;;;;;29.00;17.00;;;;;;6303165;22;20380;-88
2022/04/03 08:41:19;;;;;;;;;;;28.90;17.00;;;;;;6278702;22;19938;-88
2022/04/03 08:43:47;;;;;;;;;;;28.90;17.30;;;;;;6279214;22;20240;-88
2022/04/03 08:46:13;;;;;;;;;;;29.00;17.40;;;;;;6278166;22;20320;-88
2022/04/03 08:48:42;;;;;;;;;;;29.20;17.10;;;;;;6280692;22;19935;-88
2022/04/03 08:51:07;;;;;;;;;;;29.20;17.30;;;;;;6303115;22;19990;-88
2022/04/03 08:53:33;;;;;;;;;;;29.30;17.30;;;;;;6302571;22;20311;-88
2022/04/03 08:55:59;;;;;;;;;;;29.30;17.20;;;;;;6279600;22;19915;-89
2022/04/03 08:58:24;;;;;;;;;;;29.10;16.90;;;;;;6278500;22;19903;-88
2022/04/03 09:00:50;;;;;;;;;;;29.00;16.80;;;;;;6304333;22;19919;-89
2022/04/03 09:03:15;;;;;;;;;;;28.80;17.10;;;;;;6281011;22;20316;-88
2022/04/03 09:05:41;;;;;;;;;;;28.80;17.10;;;;;;6279376;22;19963;-88
2022/04/03 09:08:08;;;;;;;;;;;28.70;17.10;;;;;;6304118;22;19907;-88
2022/04/03 09:10:33;;;;;;;;;;;28.70;16.90;;;;;;6304445;22;19911;-87
2022/04/03 09:12:59;;;;;;;;;;;28.40;16.60;;;;;;6303252;22;19951;-88
2022/04/03 09:15:25;;;;;;;;;;;28.10;16.80;;;;;;6303373;22;20316;-88
2022/04/03 09:17:53;;;;;;;;;;;27.80;17.10;;;;;;6280639;22;19919;-87
2022/04/03 09:20:22;;;;;;;;;;;27.30;16.90;;;;;;6303653;22;19965;-88
2022/04/03 09:23:07;;;;;;;;;;;26.70;17.10;;;;;;6304403;22;19907;-88
2022/04/03 09:25:33;;;;;;;;;;;26.30;17.40;;;;;;6301839;22;19938;-88
2022/04/03 09:28:02;;;;;;;;;;;25.80;17.60;;;;;;6277754;22;19962;-87
2022/04/03 09:30:32;;;;;;;;;;;25.50;17.80;;;;;;6279452;22;19907;-88
2022/04/03 09:32:58;;;;;;;;;;;25.10;18.00;;;;;;6303393;22;20336;-88
2022/04/03 09:35:26;;;;;;;;;;;24.90;18.40;;;;;;6279175;22;19934;-88
2022/04/03 09:38:07;;;;;;;;;;;24.80;18.80;;;;;;6278822;22;19907;-87
2022/04/03 09:40:34;;;;;;;;;;;24.90;19.00;;;;;;6277493;22;19919;-87
2022/04/03 09:43:13;;;;;;;;;;;24.90;19.00;;;;;;6277861;22;20188;-89
2022/04/03 09:45:49;;;;;;;;;;;24.90;18.90;;;;;;6279109;22;19926;-87
2022/04/03 09:48:22;;;;;;;;;;;24.80;19.00;;;;;;6303630;22;20716;-89
2022/04/03 09:51:06;;;;;;;;;;;24.50;19.00;;;;;;6302047;22;19907;-89
2022/04/03 09:53:45;;;;;;;;;;;24.30;18.80;;;;;;6279186;22;19915;-90
2022/04/03 09:56:12;;;;;;;;;;;24.00;19.00;;;;;;6277333;22;19912;-88
2022/04/03 09:58:49;;;;;;;;;;;23.80;19.30;;;;;;6278318;22;19995;-88
2022/04/03 10:01:30;;;;;;;;;;;23.90;19.60;;;;;;6276670;22;19923;-88
2022/04/03 10:03:57;;;;;;;;;;;24.00;19.50;;;;;;6302956;22;20045;-89
2022/04/03 10:06:23;;;;;;;;;;;24.00;19.50;;;;;;6303096;22;19911;-88
2022/04/03 10:08:49;;;;;;;;;;;24.00;19.40;;;;;;6302258;22;19982;-88
2022/04/03 10:11:15;;;;;;;;;;;24.00;19.20;;;;;;6303065;22;20224;-88
2022/04/03 10:13:42;;;;;;;;;;;23.90;19.20;;;;;;6303360;22;19911;-88
2022/04/03 10:16:08;;;;;;;;;;;23.80;19.40;;;;;;6278846;22;20320;-89
2022/04/03 10:18:34;;;;;;;;;;;23.80;19.60;;;;;;6279899;22;19935;-89
2022/04/03 10:21:00;;;;;;;;;;;23.80;19.50;;;;;;6276419;22;20403;-90
2022/04/03 10:23:27;;;;;;;;;;;23.80;19.50;;;;;;6278606;22;19949;-87
2022/04/03 10:25:54;;;;;;;;;;;23.60;19.30;;;;;;6277402;22;19951;-88
2022/04/03 10:28:20;;;;;;;;;;;23.50;19.50;;;;;;6302567;22;19911;-89
2022/04/03 10:30:56;;;;;;;;;;;23.40;19.50;;;;;;6301468;22;19991;-88
2022/04/03 10:33:24;;;;;;;;;;;23.30;19.90;;;;;;6302401;22;20304;-86
2022/04/03 10:36:07;;;;;;;;;;;23.20;20.00;;;;;;6278455;22;19916;-87
2022/04/03 10:38:36;;;;;;;;;;;23.20;20.10;;;;;;6277612;22;19918;-86
2022/04/03 10:41:02;;;;;;;;;;;23.20;20.10;;;;;;6300621;22;20005;-88
2022/04/03 10:43:29;;;;;;;;;;;23.20;20.30;;;;;;6301416;22;19903;-87
2022/04/03 10:45:55;;;;;;;;;;;23.10;20.30;;;;;;6279324;22;20262;-88
2022/04/03 10:48:21;;;;;;;;;;;22.80;20.60;;;;;;6279210;22;19946;-89
2022/04/03 10:51:16;;;;;;;;;;;22.60;20.90;;;;;;6278976;22;20233;-87
2022/04/03 10:53:43;;;;;;;;;;;22.20;21.10;;;;;;6251152;22;19918;-88
2022/04/03 10:56:19;;;;;;;;;;;21.70;22.00;;;;;;6279710;22;19911;-88
2022/04/03 10:58:46;;;;;;;;;;;21.10;22.90;;;;;;6303935;22;20002;-88
2022/04/03 11:01:22;;;;;;;;;;;20.70;23.80;;;;;;6281728;22;19919;-87
2022/04/03 11:04:12;;;;;;;;;;;20.50;24.30;;;;;;6305092;22;19908;-87
2022/04/03 11:06:39;;;;;;;;;;;20.60;24.70;;;;;;6268838;22;20240;-88
2022/04/03 11:09:09;;;;;;;;;;;21.00;24.80;;;;;;6278741;22;19993;-87
2022/04/03 11:11:44;;;;;;;;;;;21.60;24.50;;;;;;6304457;22;19916;-88
2022/04/03 11:14:10;;;;;;;;;;;21.90;24.00;;;;;;6280994;22;19907;-89
2022/04/03 11:16:49;;;;;;;;;;;22.00;23.50;;;;;;6279540;22;19982;-88
2022/04/03 11:19:31;;;;;;;;;;;22.00;23.50;;;;;;6304059;22;19945;-89
2022/04/03 11:21:56;;;;;;;;;;;21.90;23.30;;;;;;6280173;22;20390;-87
2022/04/03 11:24:23;;;;;;;;;;;22.00;23.40;;;;;;6277512;22;19911;-86
2022/04/03 11:26:49;;;;;;;;;;;21.90;23.50;;;;;;6301878;22;19926;-86
2022/04/03 11:29:15;;;;;;;;;;;21.70;23.60;;;;;;6279304;22;19990;-87
2022/04/03 11:31:41;;;;;;;;;;;21.40;23.60;;;;;;6279455;22;20212;-87
2022/04/03 11:34:06;;;;;;;;;;;21.30;23.90;;;;;;6304063;22;19923;-88
2022/04/03 11:36:33;;;;;;;;;;;21.40;24.00;;;;;;6276070;22;23725;-87
2022/04/03 11:39:00;;;;;;;;;;;21.50;24.10;;;;;;6279604;22;19931;-88
2022/04/03 11:41:27;;;;;;;;;;;21.50;24.20;;;;;;6280880;22;19911;-88
2022/04/03 11:44:00;;;;;;;;;;;21.30;24.20;;;;;;6281640;22;19907;-87
2022/04/03 11:46:27;;;;;;;;;;;21.30;24.20;;;;;;6280912;22;19915;-87
2022/04/03 11:51:19;;;;;;;;;;;20.40;26.00;;;;;;6309855;22;19911;-87
2022/04/03 11:53:46;;;;;;;;;;;19.70;29.10;;;;;;6308047;22;20480;-86
2022/04/03 11:56:13;;;;;;;;;;;18.90;30.30;;;;;;6309533;22;19899;-86
2022/04/03 11:58:40;;;;;;;;;;;18.20;32.90;;;;;;6306640;22;19907;-88
2022/04/03 12:01:07;;;;;;;;;;;17.50;35.10;;;;;;6308294;22;19997;-89
2022/04/03 12:03:34;;;;;;;;;;;17.20;36.20;;;;;;6286289;22;19907;-88
2022/04/03 12:06:09;;;;;;;;;;;17.00;37.20;;;;;;6284392;22;19926;-87
2022/04/03 12:08:39;;;;;;;;;;;16.80;38.00;;;;;;6314520;22;20239;-88
2022/04/03 12:11:20;;;;;;;;;;;16.70;40.00;;;;;;6286110;22;19911;-87
2022/04/03 12:13:46;;;;;;;;;;;16.70;40.20;;;;;;6310663;22;20247;-87
2022/04/03 12:16:19;;;;;;;;;;;16.80;41.10;;;;;;6312851;22;19910;-87
2022/04/03 12:19:01;;;;;;;;;;;17.20;42.10;;;;;;6312576;22;19922;-88
2022/04/03 12:21:42;;;;;;;;;;;17.60;40.70;;;;;;6308724;22;19930;-88
2022/04/03 12:24:21;;;;;;;;;;;18.10;40.30;;;;;;6310202;22;20324;-88
2022/04/03 12:27:06;;;;;;;;;;;18.80;39.90;;;;;;6313232;22;19933;-88
2022/04/03 12:29:32;;;;;;;;;;;19.70;39.50;;;;;;6310937;22;19907;-87
2022/04/03 12:32:08;;;;;;;;;;;20.20;38.50;;;;;;6284202;22;20049;-88
2022/04/03 12:34:35;;;;;;;;;;;20.40;37.00;;;;;;6311663;22;19906;-89
2022/04/03 12:37:02;;;;;;;;;;;20.40;37.00;;;;;;6285946;22;19916;-90
2022/04/03 12:39:28;;;;;;;;;;;20.90;36.40;;;;;;6284817;22;20450;-88
2022/04/03 12:41:54;;;;;;;;;;;21.70;35.90;;;;;;6313486;22;19910;-89
2022/04/03 12:44:19;;;;;;;;;;;22.50;35.60;;;;;;6321805;22;19949;-88
2022/04/03 12:46:45;;;;;;;;;;;23.10;35.10;;;;;;6310195;22;19915;-89
2022/04/03 12:49:19;;;;;;;;;;;22.80;34.00;;;;;;6313363;22;19911;-87
2022/04/03 12:51:47;;;;;;;;;;;22.40;33.00;;;;;;6286513;22;20324;-89
2022/04/03 12:54:13;;;;;;;;;;;22.70;32.40;;;;;;6311027;22;19957;-89
2022/04/03 12:59:24;;;;;;;;;;;23.70;30.20;;;;;;6312392;22;20009;-88
2022/04/03 13:01:51;;;;;;;;;;;23.90;29.70;;;;;;6271587;22;19895;-88
2022/04/03 13:04:33;;;;;;;;;;;23.20;31.30;;;;;;6310217;22;19917;-86
2022/04/03 13:06:59;;;;;;;;;;;23.10;31.10;;;;;;6281977;22;19961;-87
2022/04/03 13:09:24;;;;;;;;;;;23.20;31.10;;;;;;6281514;22;20237;-87
2022/04/03 13:11:51;;;;;;;;;;;23.70;30.10;;;;;;6307787;22;19934;-85
2022/04/03 13:14:23;;;;;;;;;;;24.00;29.30;;;;;;6280965;22;19953;-87
2022/04/03 13:16:50;;;;;;;;;;;24.20;29.80;;;;;;6308275;22;19911;-86
2022/04/03 13:19:16;;;;;;;;;;;24.70;29.80;;;;;;6306227;22;20231;-88
2022/04/03 13:21:42;;;;;;;;;;;24.80;28.30;;;;;;6281066;22;19990;-87
2022/04/03 13:24:08;;;;;;;;;;;24.40;28.00;;;;;;6281121;22;20239;-86
2022/04/03 13:26:34;;;;;;;;;;;23.90;28.60;;;;;;6309618;22;19915;-89
2022/04/03 13:28:59;;;;;;;;;;;23.20;28.50;;;;;;6308967;22;19929;-89
2022/04/03 13:31:26;;;;;;;;;;;22.60;28.30;;;;;;6310870;22;20066;-88
2022/04/03 13:33:53;;;;;;;;;;;21.70;30.00;;;;;;6283814;22;19937;-88
2022/04/03 13:36:18;;;;;;;;;;;20.70;32.10;;;;;;6310551;22;20368;-89
2022/04/03 13:38:44;;;;;;;;;;;19.80;33.90;;;;;;6282099;22;19907;-88
2022/04/03 13:41:09;;;;;;;;;;;19.00;34.70;;;;;;6308226;22;19923;-88
2022/04/03 13:43:36;;;;;;;;;;;18.40;35.50;;;;;;6311976;22;19927;-88
2022/04/03 13:46:01;;;;;;;;;;;17.80;36.20;;;;;;6310634;22;19915;-89
2022/04/03 13:48:32;;;;;;;;;;;17.50;37.50;;;;;;6283817;22;19917;-86
2022/04/03 13:50:58;;;;;;;;;;;17.30;37.50;;;;;;6308723;22;19934;-86
2022/04/03 13:53:24;;;;;;;;;;;17.10;38.00;;;;;;6308928;22;19907;-88
2022/04/03 13:55:49;;;;;;;;;;;17.00;38.00;;;;;;6282978;22;19922;-87
2022/04/03 13:58:16;;;;;;;;;;;16.90;38.10;;;;;;6310306;22;19911;-88
2022/04/03 14:00:42;;;;;;;;;;;16.90;37.80;;;;;;6308522;22;20005;-87
2022/04/03 14:03:07;;;;;;;;;;;16.90;37.40;;;;;;6309852;22;19914;-88
2022/04/03 14:05:33;;;;;;;;;;;17.00;37.60;;;;;;6310249;22;19907;-87
2022/04/03 14:07:58;;;;;;;;;;;17.20;37.40;;;;;;6281665;22;20342;-87
2022/04/03 14:10:24;;;;;;;;;;;17.40;37.40;;;;;;6309549;22;20316;-88
2022/04/03 14:12:49;;;;;;;;;;;17.60;37.40;;;;;;6311935;22;19980;-88
2022/04/03 14:15:15;;;;;;;;;;;17.70;36.30;;;;;;6284445;22;19907;-88
2022/04/03 14:17:41;;;;;;;;;;;17.80;35.30;;;;;;6282796;22;19915;-87
2022/04/03 14:20:17;;;;;;;;;;;17.80;35.40;;;;;;6281919;22;20173;-89
2022/04/03 14:22:42;;;;;;;;;;;17.90;36.10;;;;;;6309115;22;19922;-88
2022/04/03 14:25:08;;;;;;;;;;;17.80;35.70;;;;;;6282697;22;20307;-88
2022/04/03 14:27:34;;;;;;;;;;;17.70;35.40;;;;;;6283815;22;19915;-89